CYTL

Big Trout Lake Airport

Big Trout Lake, Ontario, Canada
METAR CYTL 260400Z AUTO 08009G17KT 040V110 9SM CLR 09/04 A2982 RMK SLP107
Observed Flight Rules
May-26 @ 04:00 UTC (24 minutes ago) Visual Flight Rules
Wind Visibility Clouds
80° at 9 knots
 Gusting to 17 knots
9 miles
  • Clear skies
Temperatures Readings
Current 9°C / 48°F
Dewpoint 4°C / 39°F
Humidity 71%
Altimeter 29.82" Hg
Pressure 1010.7 hPa
Elevation 224
METAR CYTL 260400Z AUTO 08009G17KT 040V110 9SM CLR 09/04 A2982 RMK SLP107
Observed Flight Rules
May-26 @ 04:00 UTC
(24 minutes ago)
VFR
Wind Visibility
80° at 9 knots
 Gusting to 17 knots
9 miles
Clouds
  • Clear skies
Temperature Dewpoint
9°C / 48°F 4°C / 39°F
Humidity Altimeter Pressure
71% 29.82" Hg 1010.7 hPa